createdAt,value
2022-08-12T00:00:52.344Z,60.81
2022-08-12T00:05:13.145Z,60.82
2022-08-12T00:09:33.381Z,61.40
2022-08-12T00:13:53.708Z,61.23
2022-08-12T00:18:13.991Z,61.73
2022-08-12T00:22:34.316Z,61.66
2022-08-12T00:26:55.148Z,62.11
2022-08-12T00:31:15.332Z,62.02
2022-08-12T00:35:36.793Z,62.18
2022-08-12T00:39:58.737Z,62.70
2022-08-12T00:44:03.242Z,62.63
2022-08-12T00:48:05.270Z,62.73
2022-08-12T00:52:09.859Z,62.61
2022-08-12T00:56:11.549Z,62.68
2022-08-12T01:00:19.654Z,62.99
2022-08-12T01:04:43.550Z,63.03
2022-08-12T01:09:03.928Z,63.40
2022-08-12T01:13:18.640Z,63.35
2022-08-12T01:17:25.451Z,63.38
2022-08-12T01:21:27.049Z,63.78
2022-08-12T01:25:32.967Z,63.91
2022-08-12T01:29:41.780Z,63.66
2022-08-12T01:33:51.081Z,63.64
2022-08-12T01:38:04.312Z,63.78
2022-08-12T01:42:09.579Z,63.94
2022-08-12T01:46:31.021Z,64.09
2022-08-12T01:50:37.003Z,63.88
2022-08-12T01:54:44.572Z,63.45
2022-08-12T01:59:05.419Z,63.94
2022-08-12T02:03:29.914Z,63.93
2022-08-12T02:08:03.955Z,63.66
2022-08-12T02:12:31.339Z,63.70
2022-08-12T02:16:42.059Z,63.87
2022-08-12T02:20:51.689Z,64.18
2022-08-12T02:25:03.525Z,64.51
2022-08-12T02:29:05.277Z,64.38
2022-08-12T02:33:06.975Z,64.54
2022-08-12T02:37:10.510Z,65.06
2022-08-12T02:41:16.919Z,65.30
2022-08-12T02:45:24.949Z,65.29
2022-08-12T02:49:32.646Z,66.03
2022-08-12T02:53:37.201Z,66.01
2022-08-12T02:57:41.408Z,66.64
2022-08-12T03:01:49.726Z,66.65
2022-08-12T03:06:01.615Z,67.11
2022-08-12T03:10:16.071Z,67.55
2022-08-12T03:14:22.798Z,67.57
2022-08-12T03:18:31.450Z,67.94
2022-08-12T03:22:34.303Z,67.80
2022-08-12T03:26:37.278Z,67.87
2022-08-12T03:30:42.882Z,68.43
2022-08-12T03:34:49.296Z,68.18
2022-08-12T03:39:09.899Z,68.14
2022-08-12T03:43:36.504Z,68.65
2022-08-12T03:48:05.974Z,68.91
2022-08-12T03:52:26.157Z,68.53
2022-08-12T03:56:46.881Z,69.10
2022-08-12T04:00:48.843Z,69.07
2022-08-12T04:04:51.071Z,69.27
2022-08-12T04:08:58.323Z,69.53
2022-08-12T04:13:19.788Z,69.61
2022-08-12T04:17:22.394Z,69.84
2022-08-12T04:21:25.853Z,70.01
2022-08-12T04:25:29.762Z,70.14
2022-08-12T04:30:29.549Z,70.14
2022-08-12T04:33:53.268Z,70.35
2022-08-12T04:37:58.353Z,71.00
2022-08-12T04:42:02.133Z,71.18
2022-08-12T04:46:03.736Z,71.26
2022-08-12T04:50:33.719Z,71.27
2022-08-12T04:54:34.079Z,71.76
2022-08-12T04:58:36.282Z,71.80
2022-08-12T05:02:38.262Z,71.76
2022-08-12T05:06:39.918Z,71.49
2022-08-12T05:10:43.796Z,71.72
2022-08-12T05:14:46.210Z,71.87
2022-08-12T05:18:47.954Z,71.91
2022-08-12T05:22:52.226Z,71.68
2022-08-12T05:27:00.363Z,71.73
2022-08-12T05:31:02.123Z,71.86
2022-08-12T05:35:06.569Z,71.71
2022-08-12T05:39:08.629Z,71.11
2022-08-12T05:43:10.198Z,70.78
2022-08-12T05:47:14.671Z,70.33
2022-08-12T05:51:16.807Z,70.25
2022-08-12T05:55:20.312Z,70.45
2022-08-12T05:59:21.930Z,69.99
2022-08-12T06:03:25.519Z,69.73
2022-08-12T06:07:59.969Z,69.01
2022-08-12T06:12:05.089Z,68.84
2022-08-12T06:16:09.874Z,68.58
2022-08-12T06:20:25.966Z,68.03
2022-08-12T06:24:31.294Z,67.77
2022-08-12T06:28:32.978Z,68.00
2022-08-12T06:32:34.674Z,67.40
2022-08-12T06:36:37.070Z,67.56
2022-08-12T06:40:58.082Z,67.75
2022-08-12T06:45:00.394Z,67.62
2022-08-12T06:49:02.007Z,67.42
2022-08-12T06:53:06.684Z,67.10
2022-08-12T06:58:06.220Z,66.87
2022-08-12T07:01:32.079Z,66.83
2022-08-12T07:05:33.813Z,66.20
2022-08-12T07:10:06.907Z,66.28
2022-08-12T07:14:11.968Z,65.58
2022-08-12T07:18:20.088Z,65.46
2022-08-12T07:22:23.499Z,65.29
2022-08-12T07:26:25.143Z,64.77
2022-08-12T07:30:30.649Z,64.52
2022-08-12T07:34:32.261Z,64.42
2022-08-12T07:38:47.849Z,64.32
2022-08-12T07:42:49.646Z,63.99
2022-08-12T07:46:51.438Z,63.29
2022-08-12T07:50:53.779Z,62.92
2022-08-12T07:54:55.440Z,62.33
2022-08-12T07:58:59.098Z,61.80
2022-08-12T08:03:01.112Z,61.30
2022-08-12T08:07:02.754Z,60.93
2022-08-12T08:11:22.932Z,60.63
2022-08-12T08:16:01.692Z,60.41
2022-08-12T08:20:03.908Z,59.94
2022-08-12T08:24:15.137Z,59.29
2022-08-12T08:28:17.358Z,58.93
2022-08-12T08:32:18.997Z,58.00
2022-08-12T08:36:23.901Z,57.97
2022-08-12T08:40:45.253Z,57.27
2022-08-12T08:44:47.026Z,56.81
2022-08-12T08:48:51.478Z,56.79
2022-08-12T08:52:54.119Z,56.50
2022-08-12T08:56:55.724Z,56.41
2022-08-12T09:00:57.316Z,56.01
2022-08-12T09:05:11.235Z,55.71
2022-08-12T09:09:17.687Z,55.56
2022-08-12T09:14:11.582Z,55.34
2022-08-12T09:17:59.150Z,54.95
2022-08-12T09:22:02.397Z,53.99
2022-08-12T09:30:42.397Z,53.53
2022-08-12T09:34:50.857Z,53.02
2022-08-12T09:38:59.213Z,52.59
2022-08-12T09:43:21.628Z,52.85
2022-08-12T09:47:29.299Z,52.89
2022-08-12T09:51:37.646Z,52.76
2022-08-12T09:56:05.242Z,53.32
2022-08-12T10:00:29.189Z,53.10
2022-08-12T10:04:33.708Z,52.95
2022-08-12T10:08:38.903Z,52.64
2022-08-12T10:13:06.363Z,52.78
2022-08-12T10:17:09.460Z,52.88
2022-08-12T10:21:16.975Z,52.40
2022-08-12T10:26:35.642Z,52.29
2022-08-12T10:30:03.118Z,52.17
2022-08-12T10:34:26.489Z,51.76
2022-08-12T10:38:38.912Z,51.43
2022-08-12T10:43:01.208Z,50.10
2022-08-12T10:47:26.675Z,49.31
2022-08-12T10:51:51.748Z,49.28
2022-08-12T10:55:56.446Z,48.71
2022-08-12T11:00:33.867Z,48.11
2022-08-12T11:04:39.664Z,47.83
2022-08-12T11:08:47.171Z,47.73
2022-08-12T11:12:59.415Z,47.48
2022-08-12T11:17:34.115Z,46.72
2022-08-12T11:21:56.145Z,46.41
2022-08-12T11:25:58.246Z,46.04
2022-08-12T11:30:05.989Z,45.07
2022-08-12T11:34:51.517Z,44.14
2022-08-12T11:38:30.839Z,43.70
2022-08-12T11:42:32.829Z,42.41
2022-08-12T11:46:37.057Z,41.68
2022-08-12T11:50:41.977Z,41.12
2022-08-12T11:54:51.218Z,39.92
2022-08-12T12:01:58.895Z,39.52
2022-08-12T12:03:17.245Z,39.26
2022-08-12T12:07:19.003Z,38.94
2022-08-12T12:11:21.878Z,38.44
2022-08-12T12:15:24.915Z,37.63
2022-08-12T12:19:28.662Z,36.80
2022-08-12T12:23:47.363Z,36.75
2022-08-12T12:28:04.697Z,36.41
2022-08-12T12:32:11.644Z,36.33
2022-08-12T12:36:20.630Z,36.45
2022-08-12T12:40:30.050Z,36.16
2022-08-12T12:44:41.813Z,35.84
2022-08-12T12:48:52.508Z,34.81
2022-08-12T12:52:54.309Z,34.67
2022-08-12T12:56:55.957Z,34.35
2022-08-12T13:01:01.267Z,34.49
2022-08-12T13:05:11.877Z,34.39
2022-08-12T13:09:15.740Z,34.50
2022-08-12T13:14:07.006Z,34.51
2022-08-12T13:18:03.317Z,34.20
2022-08-12T13:22:19.546Z,34.10
2022-08-12T13:26:22.351Z,34.32
2022-08-12T13:30:26.711Z,34.09
2022-08-12T13:34:34.888Z,33.81
2022-08-12T13:38:54.332Z,33.95
2022-08-12T13:43:01.735Z,34.23
2022-08-12T13:47:18.438Z,33.42
2022-08-12T13:51:24.281Z,34.31
2022-08-12T13:55:31.056Z,34.29
2022-08-12T13:59:48.562Z,33.99
2022-08-12T14:03:54.847Z,33.80
2022-08-12T14:08:01.831Z,33.54
2022-08-12T14:12:05.421Z,33.52
2022-08-12T14:16:09.801Z,33.29
2022-08-12T14:20:16.178Z,33.60
2022-08-12T14:24:18.055Z,33.32
2022-08-12T14:28:23.324Z,33.07
2022-08-12T14:32:27.844Z,33.05
2022-08-12T14:36:29.568Z,32.48
2022-08-12T14:40:42.981Z,32.13
2022-08-12T14:44:57.987Z,31.79
2022-08-12T14:49:27.631Z,32.03
2022-08-12T14:57:56.712Z,31.12
2022-08-12T15:01:59.695Z,30.82
2022-08-12T15:06:43.920Z,30.83
2022-08-12T15:10:32.253Z,30.68
2022-08-12T15:14:37.895Z,30.63
2022-08-12T15:18:40.351Z,30.55
2022-08-12T15:22:57.935Z,30.34
2022-08-12T15:26:59.769Z,30.18
2022-08-12T15:31:02.642Z,30.15
2022-08-12T15:35:04.677Z,30.03
2022-08-12T15:39:17.043Z,30.05
2022-08-12T15:43:51.001Z,30.34
2022-08-12T15:47:48.254Z,30.39
2022-08-12T15:51:59.012Z,30.40
2022-08-12T15:56:12.607Z,30.44
2022-08-12T16:00:31.884Z,30.42
2022-08-12T16:04:36.260Z,30.63
2022-08-12T16:08:44.091Z,30.70
2022-08-12T16:12:55.022Z,30.94
2022-08-12T16:16:57.697Z,30.76
2022-08-12T16:21:00.004Z,30.47
2022-08-12T16:25:02.649Z,30.59
2022-08-12T16:29:14.685Z,30.49
2022-08-12T16:33:18.829Z,30.38
2022-08-12T16:37:22.457Z,30.76
2022-08-12T16:41:39.691Z,30.64
2022-08-12T16:46:05.269Z,30.64
2022-08-12T16:50:09.818Z,30.57
2022-08-12T16:54:19.000Z,30.27
2022-08-12T16:58:30.540Z,30.13
2022-08-12T17:02:33.535Z,30.48
2022-08-12T17:06:36.642Z,30.50
2022-08-12T17:10:41.276Z,30.71
2022-08-12T17:14:54.869Z,30.89
2022-08-12T17:18:59.731Z,30.91
2022-08-12T17:23:14.625Z,31.02
2022-08-12T17:27:16.787Z,31.19
2022-08-12T17:31:18.551Z,31.26
2022-08-12T17:35:50.194Z,31.70
2022-08-12T17:40:15.140Z,32.10
2022-08-12T17:44:14.631Z,32.65
2022-08-12T17:48:18.078Z,32.83
2022-08-12T17:52:22.487Z,33.13
2022-08-12T17:56:39.348Z,33.25
2022-08-12T18:00:46.005Z,33.60
2022-08-12T18:05:04.823Z,33.99
2022-08-12T18:09:13.091Z,33.98
2022-08-12T18:13:34.643Z,34.32
2022-08-12T18:17:40.965Z,34.71
2022-08-12T18:22:02.337Z,35.11
2022-08-12T18:26:22.391Z,35.18
2022-08-12T18:30:29.889Z,35.27
2022-08-12T18:34:32.505Z,35.70
2022-08-12T18:38:34.525Z,36.23
2022-08-12T18:42:38.302Z,36.62
2022-08-12T18:46:55.740Z,37.66
2022-08-12T18:51:11.964Z,37.97
2022-08-12T18:55:24.108Z,38.23
2022-08-12T19:00:01.487Z,38.65
2022-08-12T19:04:08.829Z,38.86
2022-08-12T19:08:11.369Z,39.47
2022-08-12T19:12:32.929Z,39.46
2022-08-12T19:16:37.125Z,40.26
2022-08-12T19:20:39.431Z,40.97
2022-08-12T19:25:00.626Z,41.33
2022-08-12T19:29:04.939Z,42.40
2022-08-12T19:33:07.059Z,43.07
2022-08-12T19:37:09.077Z,43.55
2022-08-12T19:41:12.226Z,44.25
2022-08-12T19:45:24.463Z,45.35
2022-08-12T19:49:55.699Z,45.75
2022-08-12T19:53:59.599Z,46.88
2022-08-12T19:58:03.519Z,47.79
2022-08-12T20:02:12.809Z,49.03
2022-08-12T20:06:21.579Z,49.25
2022-08-12T20:10:25.199Z,49.83
2022-08-12T20:14:37.918Z,50.42
2022-08-12T20:18:44.614Z,51.38
2022-08-12T20:22:58.064Z,51.99
2022-08-12T20:27:00.213Z,52.83
2022-08-12T20:31:03.696Z,52.77
2022-08-12T20:35:10.539Z,53.79
2022-08-12T20:39:33.986Z,54.38
2022-08-12T20:43:37.616Z,54.19
2022-08-12T20:47:47.380Z,55.11
2022-08-12T20:52:04.053Z,54.97
2022-08-12T20:56:22.298Z,55.87
2022-08-12T21:00:33.061Z,56.40
2022-08-12T21:04:53.387Z,56.29
2022-08-12T21:08:59.989Z,56.89
2022-08-12T21:13:01.805Z,56.99
2022-08-12T21:17:22.377Z,57.85
2022-08-12T21:21:50.414Z,58.37
2022-08-12T21:25:56.136Z,58.74
2022-08-12T21:29:59.279Z,58.67
2022-08-12T21:34:08.511Z,59.30
2022-08-12T21:38:10.679Z,59.33
2022-08-12T21:42:13.410Z,59.25
2022-08-12T21:46:34.884Z,59.60
2022-08-12T21:50:38.492Z,59.76
2022-08-12T21:54:43.437Z,59.62
2022-08-12T21:58:45.081Z,59.93
2022-08-12T22:03:05.669Z,59.79
2022-08-12T22:07:09.492Z,59.82
2022-08-12T22:11:11.130Z,59.65
2022-08-12T22:15:22.017Z,59.60
2022-08-12T22:19:23.930Z,59.17
2022-08-12T22:23:52.317Z,59.43
2022-08-12T22:28:06.075Z,59.19
2022-08-12T22:32:11.397Z,59.38
2022-08-12T22:36:20.561Z,59.11
2022-08-12T22:40:23.845Z,58.89
2022-08-12T22:44:54.793Z,58.90
2022-08-12T22:48:56.957Z,58.31
2022-08-12T22:53:15.267Z,57.78
2022-08-12T22:57:17.714Z,57.42
2022-08-12T23:01:52.656Z,57.51
2022-08-12T23:06:10.035Z,56.46
2022-08-12T23:10:12.865Z,55.56
2022-08-12T23:14:24.917Z,55.10
2022-08-12T23:18:29.834Z,54.18
2022-08-12T23:23:05.767Z,53.46
2022-08-12T23:27:16.817Z,53.58
2022-08-12T23:31:30.404Z,53.14
2022-08-12T23:36:02.288Z,52.64
2022-08-12T23:40:06.696Z,52.39
2022-08-12T23:44:20.150Z,52.27
2022-08-12T23:48:31.179Z,51.59
2022-08-12T23:52:34.238Z,51.88
2022-08-12T23:56:48.799Z,51.16
